createdAt,value
2018-11-07T00:01:17.841Z,101316.27
2018-11-07T00:03:47.023Z,101309.68
2018-11-07T00:06:16.292Z,101311.88
2018-11-07T00:08:45.666Z,101308.81
2018-11-07T00:11:14.741Z,101318.47
2018-11-07T00:13:43.933Z,101313.19
2018-11-07T00:16:13.227Z,101312.31
2018-11-07T00:18:42.636Z,101313.20
2018-11-07T00:21:12.066Z,101314.97
2018-11-07T00:23:41.422Z,101310.98
2018-11-07T00:26:10.690Z,101307.47
2018-11-07T00:28:39.943Z,101308.36
2018-11-07T00:31:09.162Z,101310.56
2018-11-07T00:33:38.128Z,101308.37
2018-11-07T00:36:07.613Z,101309.23
2018-11-07T00:38:36.802Z,101307.92
2018-11-07T00:41:06.022Z,101314.06
2018-11-07T00:43:35.219Z,101310.55
2018-11-07T00:46:04.558Z,101311.86
2018-11-07T00:48:33.505Z,101318.48
2018-11-07T00:51:02.806Z,101317.60
2018-11-07T00:53:32.090Z,101307.06
2018-11-07T00:56:01.197Z,101305.75
2018-11-07T00:58:30.368Z,101309.70
2018-11-07T01:00:59.656Z,101304.42
2018-11-07T01:03:28.769Z,101303.53
2018-11-07T01:05:57.950Z,101301.78
2018-11-07T01:08:27.521Z,101305.31
2018-11-07T01:10:56.572Z,101305.30
2018-11-07T01:13:26.109Z,101309.70
2018-11-07T01:15:55.460Z,101301.34
2018-11-07T01:18:24.477Z,101299.59
2018-11-07T01:20:53.898Z,101298.28
2018-11-07T01:23:23.515Z,101302.66
2018-11-07T01:25:53.884Z,101290.38
2018-11-07T01:28:23.235Z,101293.88
2018-11-07T01:30:52.424Z,101296.53
2018-11-07T01:33:21.437Z,101291.21
2018-11-07T01:35:50.609Z,101290.31
2018-11-07T01:38:19.715Z,101286.87
2018-11-07T01:40:48.748Z,101283.34
2018-11-07T01:43:17.966Z,101275.39
2018-11-07T01:45:47.097Z,101278.90
2018-11-07T01:48:16.091Z,101282.44
2018-11-07T01:50:45.445Z,101272.78
2018-11-07T01:53:14.566Z,101271.00
2018-11-07T01:55:43.471Z,101272.78
2018-11-07T01:58:12.728Z,101272.31
2018-11-07T02:00:41.944Z,101274.51
2018-11-07T02:03:11.023Z,101272.80
2018-11-07T02:05:40.483Z,101245.55
2018-11-07T02:08:09.770Z,101265.75
2018-11-07T02:10:38.911Z,101261.78
2018-11-07T02:13:08.201Z,101258.72
2018-11-07T02:15:37.671Z,101268.80
2018-11-07T02:18:07.315Z,101270.98
2018-11-07T02:20:36.611Z,101272.30
2018-11-07T02:23:06.011Z,101265.72
2018-11-07T02:25:35.011Z,101270.11
2018-11-07T02:28:04.315Z,101266.12
2018-11-07T02:30:33.730Z,101264.33
2018-11-07T02:33:02.919Z,101272.67
2018-11-07T02:35:32.091Z,101266.53
2018-11-07T02:38:01.217Z,101264.34
2018-11-07T02:40:30.210Z,101264.33
2018-11-07T02:42:59.450Z,101262.59
2018-11-07T02:45:28.960Z,101252.48
2018-11-07T02:47:58.612Z,101254.23
2018-11-07T02:50:28.119Z,101258.62
2018-11-07T02:52:57.148Z,101255.09
2018-11-07T02:55:26.117Z,101255.09
2018-11-07T02:57:55.466Z,101263.03
2018-11-07T03:00:24.836Z,101251.20
2018-11-07T03:02:54.030Z,101249.42
2018-11-07T03:05:23.695Z,101258.64
2018-11-07T03:07:52.980Z,101258.23
2018-11-07T03:10:22.481Z,101257.74
2018-11-07T03:12:51.661Z,101255.11
2018-11-07T03:15:21.324Z,101251.63
2018-11-07T03:17:50.265Z,101241.52
2018-11-07T03:20:19.466Z,101229.69
2018-11-07T03:22:48.702Z,101240.19
2018-11-07T03:25:17.880Z,101238.83
2018-11-07T03:27:47.312Z,101237.52
2018-11-07T03:30:16.440Z,101245.40
2018-11-07T03:32:45.510Z,101238.40
2018-11-07T03:35:19.934Z,101239.22
2018-11-07T03:37:49.251Z,101237.48
2018-11-07T03:40:18.487Z,101244.93
2018-11-07T03:42:47.779Z,101243.62
2018-11-07T03:45:17.161Z,101244.49
2018-11-07T03:47:46.081Z,101240.95
2018-11-07T03:50:15.409Z,101244.02
2018-11-07T03:52:44.652Z,101252.79
2018-11-07T03:55:13.692Z,101242.70
2018-11-07T03:57:42.854Z,101247.52
2018-11-07T04:00:12.091Z,101247.05
2018-11-07T04:02:41.486Z,101252.21
2018-11-07T04:05:11.819Z,101242.16
2018-11-07T04:07:43.051Z,101234.72
2018-11-07T04:10:12.374Z,101235.62
2018-11-07T04:12:41.342Z,101238.30
2018-11-07T04:15:10.480Z,101232.17
2018-11-07T04:17:40.003Z,101227.77
2018-11-07T04:20:09.779Z,101234.79
2018-11-07T04:22:39.019Z,101231.27
2018-11-07T04:25:08.950Z,101223.34
2018-11-07T04:27:38.173Z,101225.09
2018-11-07T04:30:09.478Z,101227.25
2018-11-07T04:32:38.565Z,101221.56
2018-11-07T04:35:08.772Z,101221.95
2018-11-07T04:37:38.329Z,101231.13
2018-11-07T04:40:09.036Z,101231.12
2018-11-07T04:42:38.231Z,101220.64
2018-11-07T04:45:07.848Z,101222.84
2018-11-07T04:47:36.987Z,101218.91
2018-11-07T04:50:07.607Z,101225.02
2018-11-07T04:52:37.020Z,101225.05
2018-11-07T04:55:06.998Z,101225.53
2018-11-07T04:57:39.288Z,101226.85
2018-11-07T05:00:10.322Z,101229.45
2018-11-07T05:02:39.647Z,101239.09
2018-11-07T05:05:09.054Z,101234.66
2018-11-07T05:07:38.996Z,101236.42
2018-11-07T05:10:10.025Z,101235.92
2018-11-07T05:12:39.274Z,101243.38
2018-11-07T05:15:09.049Z,101239.48
2018-11-07T05:17:38.521Z,101243.30
2018-11-07T05:20:09.726Z,101244.69
2018-11-07T05:22:38.779Z,101248.63
2018-11-07T05:25:09.294Z,101239.44
2018-11-07T05:27:38.504Z,101244.29
2018-11-07T05:30:10.348Z,101246.81
2018-11-07T05:32:39.955Z,101245.88
2018-11-07T05:35:10.000Z,101252.02
2018-11-07T05:37:39.511Z,101254.68
2018-11-07T05:40:08.807Z,101257.30
2018-11-07T05:42:37.741Z,101259.50
2018-11-07T05:45:07.781Z,101258.22
2018-11-07T05:47:36.896Z,101259.95
2018-11-07T05:50:07.407Z,101257.41
2018-11-07T05:52:37.175Z,101263.57
2018-11-07T05:55:07.250Z,101253.92
2018-11-07T05:57:36.549Z,101246.92
2018-11-07T06:00:07.284Z,101252.93
2018-11-07T06:02:37.000Z,101255.53
2018-11-07T06:05:07.694Z,101244.56
2018-11-07T06:07:37.378Z,101254.66
2018-11-07T06:10:08.473Z,101252.83
2018-11-07T06:12:38.416Z,101223.47
2018-11-07T06:15:09.168Z,101247.19
2018-11-07T06:17:38.574Z,101251.14
2018-11-07T06:20:08.706Z,101241.45
2018-11-07T06:22:38.009Z,101257.25
2018-11-07T06:25:07.560Z,101259.50
2018-11-07T06:27:36.901Z,101254.68
2018-11-07T06:30:08.874Z,101248.97
2018-11-07T06:32:38.316Z,101256.39
2018-11-07T06:35:08.724Z,101253.71
2018-11-07T06:37:37.938Z,101254.59
2018-11-07T06:40:09.046Z,101262.53
2018-11-07T06:42:38.489Z,101257.30
2018-11-07T06:45:08.305Z,101259.92
2018-11-07T06:47:37.600Z,101256.47
2018-11-07T06:50:09.363Z,101260.84
2018-11-07T06:52:38.752Z,101264.69
2018-11-07T06:55:08.704Z,101255.45
2018-11-07T06:57:38.125Z,101255.08
2018-11-07T07:00:10.806Z,101257.28
2018-11-07T07:02:40.109Z,101255.64
2018-11-07T07:05:09.190Z,101261.20
2018-11-07T07:07:38.781Z,101263.34
2018-11-07T07:10:10.661Z,101264.17
2018-11-07T07:12:40.121Z,101260.23
2018-11-07T07:15:11.331Z,101267.74
2018-11-07T07:17:42.484Z,101259.77
2018-11-07T07:20:16.504Z,101262.42
2018-11-07T07:22:46.311Z,101258.91
2018-11-07T07:25:15.532Z,101254.59
2018-11-07T07:27:45.344Z,101252.42
2018-11-07T07:30:19.964Z,101262.11
2018-11-07T07:32:49.292Z,101255.53
2018-11-07T07:35:18.443Z,101252.91
2018-11-07T07:37:47.830Z,101260.77
2018-11-07T07:40:17.211Z,101256.77
2018-11-07T07:42:46.842Z,101266.83
2018-11-07T07:45:18.490Z,101255.86
2018-11-07T07:47:47.742Z,101256.80
2018-11-07T07:50:18.210Z,101249.77
2018-11-07T07:52:47.611Z,101254.63
2018-11-07T07:55:16.933Z,101241.03
2018-11-07T07:57:46.066Z,101241.96
2018-11-07T08:00:21.755Z,101238.55
2018-11-07T08:02:52.051Z,101241.13
2018-11-07T08:05:21.586Z,101245.07
2018-11-07T08:07:51.092Z,101246.87
2018-11-07T08:10:21.314Z,101241.67
2018-11-07T08:12:50.955Z,101248.70
2018-11-07T08:15:20.423Z,101252.17
2018-11-07T08:17:49.387Z,101245.12
2018-11-07T08:20:19.055Z,101247.70
2018-11-07T08:22:49.032Z,101242.41
2018-11-07T08:25:18.056Z,101246.44
2018-11-07T08:27:47.320Z,101243.86
2018-11-07T08:30:19.000Z,101247.86
2018-11-07T08:32:48.031Z,101246.98
2018-11-07T08:35:17.527Z,101247.41
2018-11-07T08:37:47.225Z,101243.09
2018-11-07T08:40:22.951Z,101245.23
2018-11-07T08:42:52.462Z,101236.87
2018-11-07T08:45:22.238Z,101234.73
2018-11-07T08:47:51.508Z,101238.67
2018-11-07T08:50:21.711Z,101239.17
2018-11-07T08:52:51.189Z,100625.34
2018-11-07T08:55:21.572Z,101235.74
2018-11-07T08:57:51.061Z,101233.11
2018-11-07T09:00:22.487Z,101231.36
2018-11-07T09:02:52.934Z,101225.25
2018-11-07T09:05:22.814Z,101226.58
2018-11-07T09:07:52.258Z,101222.14
2018-11-07T09:10:22.590Z,101227.87
2018-11-07T09:12:51.593Z,101233.12
2018-11-07T09:15:22.723Z,101226.13
2018-11-07T09:17:51.931Z,101228.77
2018-11-07T09:20:22.895Z,101223.97
2018-11-07T09:22:52.358Z,101228.78
2018-11-07T09:25:21.559Z,101227.91
2018-11-07T09:27:50.839Z,101223.99
2018-11-07T09:30:22.279Z,101221.79
2018-11-07T09:32:51.547Z,101228.83
2018-11-07T09:35:21.326Z,101218.29
2018-11-07T09:37:50.843Z,101214.78
2018-11-07T09:40:21.189Z,101209.54
2018-11-07T09:42:50.889Z,101199.86
2018-11-07T09:45:21.510Z,101202.50
2018-11-07T09:47:51.266Z,101202.48
2018-11-07T09:50:21.292Z,101200.75
2018-11-07T09:52:50.331Z,101199.87
2018-11-07T09:55:21.449Z,101199.86
2018-11-07T09:57:50.544Z,101198.11
2018-11-07T10:00:21.737Z,101206.02
2018-11-07T10:02:51.296Z,101213.05
2018-11-07T10:05:21.549Z,101211.27
2018-11-07T10:07:50.861Z,101205.98
2018-11-07T10:10:21.553Z,101198.98
2018-11-07T10:12:51.062Z,101197.23
2018-11-07T10:15:20.959Z,101193.72
2018-11-07T10:17:50.503Z,101191.98
2018-11-07T10:20:22.142Z,101191.55
2018-11-07T10:22:51.612Z,101193.28
2018-11-07T10:25:20.945Z,101191.06
2018-11-07T10:27:50.453Z,101180.07
2018-11-07T10:30:21.021Z,101184.05
2018-11-07T10:32:50.725Z,101182.72
2018-11-07T10:35:20.268Z,101176.08
2018-11-07T10:37:49.365Z,101176.08
2018-11-07T10:40:21.464Z,101176.56
2018-11-07T10:42:50.484Z,101180.52
2018-11-07T10:45:19.592Z,101178.78
2018-11-07T10:47:49.536Z,101179.65
2018-11-07T10:50:19.531Z,101173.50
2018-11-07T10:52:48.948Z,101174.34
2018-11-07T10:55:18.747Z,101181.39
2018-11-07T10:57:47.819Z,101179.20
2018-11-07T11:00:22.392Z,101169.98
2018-11-07T11:02:56.703Z,101172.12
2018-11-07T11:05:26.219Z,101168.55
2018-11-07T11:07:55.281Z,101163.73
2018-11-07T11:10:24.471Z,101169.44
2018-11-07T11:12:54.232Z,101167.26
2018-11-07T11:15:23.317Z,101167.30
2018-11-07T11:17:52.523Z,101177.40
2018-11-07T11:20:21.811Z,101171.25
2018-11-07T11:22:50.969Z,101171.66
2018-11-07T11:25:20.210Z,101165.52
2018-11-07T11:27:49.602Z,101163.28
2018-11-07T11:30:18.564Z,101153.09
2018-11-07T11:32:47.565Z,101163.23
2018-11-07T11:35:17.017Z,101166.33
2018-11-07T11:37:45.968Z,101163.75
2018-11-07T11:40:15.744Z,101163.72
2018-11-07T11:42:52.756Z,101156.29
2018-11-07T11:45:24.493Z,101155.81
2018-11-07T11:47:56.282Z,101159.33
2018-11-07T11:50:26.799Z,101155.83
2018-11-07T11:52:56.328Z,101149.25
2018-11-07T11:55:25.862Z,101159.41
2018-11-07T11:57:55.241Z,101148.42
2018-11-07T12:00:25.244Z,101154.56
2018-11-07T12:02:55.611Z,101149.68
2018-11-07T12:05:25.924Z,101147.05
2018-11-07T12:07:56.314Z,101152.33
2018-11-07T12:10:31.741Z,101165.47
2018-11-07T12:13:06.356Z,101161.11
2018-11-07T12:15:38.917Z,101163.75
2018-11-07T12:18:15.512Z,101156.70
2018-11-07T12:20:53.907Z,101153.20
2018-11-07T12:23:23.461Z,101154.95
2018-11-07T12:25:53.278Z,101149.23
2018-11-07T12:28:22.544Z,101147.92
2018-11-07T12:30:51.740Z,101146.14
2018-11-07T12:33:21.047Z,101142.59
2018-11-07T12:35:50.035Z,101140.84
2018-11-07T12:38:19.238Z,101142.66
2018-11-07T12:40:48.717Z,101132.11
2018-11-07T12:43:17.734Z,101146.15
2018-11-07T12:45:46.993Z,101137.33
2018-11-07T12:48:16.206Z,101137.32
2018-11-07T12:50:45.244Z,101134.69
2018-11-07T12:53:14.532Z,101134.69
2018-11-07T12:55:43.950Z,101142.66
2018-11-07T12:58:13.510Z,101147.07
2018-11-07T13:00:42.626Z,101141.36
2018-11-07T13:03:11.880Z,101134.74
2018-11-07T13:05:40.952Z,101133.88
2018-11-07T13:08:10.430Z,101131.64
2018-11-07T13:10:39.607Z,101126.80
2018-11-07T13:13:08.653Z,101132.08
2018-11-07T13:15:37.812Z,101133.00
2018-11-07T13:18:07.375Z,101130.33
2018-11-07T13:20:36.493Z,101125.96
2018-11-07T13:23:06.255Z,101123.28
2018-11-07T13:25:35.657Z,101128.58
2018-11-07T13:28:04.688Z,101125.91
2018-11-07T13:30:33.936Z,101122.42
2018-11-07T13:33:03.090Z,101119.83
2018-11-07T13:35:32.135Z,101133.47
2018-11-07T13:38:01.449Z,101126.85
2018-11-07T13:40:30.746Z,101127.69
2018-11-07T13:42:59.907Z,101137.78
2018-11-07T13:45:29.063Z,101132.96
2018-11-07T13:47:58.363Z,101140.87
2018-11-07T13:50:27.535Z,101151.89
2018-11-07T13:52:56.672Z,101144.44
2018-11-07T13:55:26.011Z,101140.03
2018-11-07T13:57:56.508Z,101145.28
2018-11-07T14:00:25.961Z,101140.93
2018-11-07T14:02:55.391Z,101143.57
2018-11-07T14:05:24.505Z,101133.02
2018-11-07T14:07:54.322Z,101137.84
2018-11-07T14:10:25.051Z,101135.64
2018-11-07T14:12:54.613Z,101140.94
2018-11-07T14:15:24.298Z,101136.56
2018-11-07T14:17:53.698Z,101131.75
2018-11-07T14:20:22.951Z,101138.79
2018-11-07T14:22:52.221Z,101141.43
2018-11-07T14:25:21.495Z,101140.98
2018-11-07T14:27:50.954Z,101139.70
2018-11-07T14:30:21.455Z,101137.48
2018-11-07T14:32:55.926Z,101139.66
2018-11-07T14:35:25.295Z,101143.61
2018-11-07T14:37:55.103Z,101141.43
2018-11-07T14:40:24.388Z,101148.05
2018-11-07T14:42:53.742Z,101144.09
2018-11-07T14:45:23.191Z,101134.84
2018-11-07T14:47:52.677Z,101133.11
2018-11-07T14:50:22.061Z,101141.02
2018-11-07T14:52:51.404Z,101126.52
2018-11-07T14:55:20.915Z,101118.18
2018-11-07T14:57:50.389Z,101112.48
2018-11-07T15:00:19.688Z,101105.00
2018-11-07T15:16:26.767Z,101121.73
2018-11-07T15:18:55.765Z,101122.16
2018-11-07T15:21:24.793Z,101129.64
2018-11-07T15:23:54.359Z,101127.88
2018-11-07T15:26:23.757Z,101130.95
2018-11-07T15:28:53.103Z,101132.27
2018-11-07T15:31:22.683Z,101132.68
2018-11-07T15:33:51.978Z,101131.37
2018-11-07T15:36:24.016Z,101141.03
2018-11-07T15:38:54.257Z,101133.13
2018-11-07T15:41:25.421Z,101133.14
2018-11-07T15:43:56.093Z,101136.20
2018-11-07T15:46:28.012Z,101144.12
2018-11-07T15:48:57.584Z,101147.17
2018-11-07T15:51:38.112Z,101151.57
2018-11-07T15:54:07.828Z,101150.26
2018-11-07T15:56:37.985Z,101148.94
2018-11-07T15:59:08.339Z,101152.44
2018-11-07T16:01:41.333Z,101159.47
2018-11-07T16:04:14.749Z,101159.03
2018-11-07T16:06:47.337Z,101162.11
2018-11-07T16:09:17.906Z,101159.48
2018-11-07T16:11:52.405Z,101171.32
2018-11-07T16:14:23.062Z,101171.78
2018-11-07T16:16:56.165Z,101171.77
2018-11-07T16:19:27.176Z,101170.89
2018-11-07T16:21:56.724Z,101169.12
2018-11-07T16:24:31.406Z,101180.55
2018-11-07T16:27:03.386Z,101173.53
2018-11-07T16:29:43.347Z,101180.56
2018-11-07T16:32:28.894Z,101193.72
2018-11-07T16:35:01.182Z,101186.69
2018-11-07T16:37:32.733Z,101185.39
2018-11-07T16:40:02.467Z,101196.34
2018-11-07T16:42:31.975Z,101194.16
2018-11-07T16:45:01.499Z,101188.44
2018-11-07T16:47:30.984Z,101193.73
2018-11-07T16:50:00.005Z,101183.20
2018-11-07T16:52:29.229Z,101202.50
2018-11-07T16:54:58.596Z,101210.83
2018-11-07T16:57:28.320Z,101213.88
2018-11-07T16:59:59.367Z,101221.79
2018-11-07T17:02:30.154Z,101221.78
2018-11-07T17:04:59.987Z,101217.41
2018-11-07T17:07:30.587Z,101226.63
2018-11-07T17:10:00.417Z,101229.67
2018-11-07T17:12:32.005Z,101226.17
2018-11-07T17:15:01.117Z,101240.66
2018-11-07T17:17:32.034Z,101234.11
2018-11-07T17:20:02.834Z,101242.87
2018-11-07T17:22:32.084Z,101248.14
2018-11-07T17:25:01.587Z,101247.23
2018-11-07T17:27:30.804Z,101256.89
2018-11-07T17:29:59.842Z,101257.80
2018-11-07T17:32:28.963Z,101257.78
2018-11-07T17:34:58.630Z,101266.58
2018-11-07T17:37:30.154Z,101269.20
2018-11-07T17:40:01.025Z,101244.17
2018-11-07T17:42:34.063Z,101278.84
2018-11-07T17:45:05.963Z,101279.73
2018-11-07T17:47:36.516Z,101278.43
2018-11-07T17:50:09.398Z,101283.24
2018-11-07T17:52:39.648Z,101289.40
2018-11-07T17:55:12.391Z,101285.91
2018-11-07T17:57:42.090Z,101288.53
2018-11-07T18:00:15.267Z,101285.86
2018-11-07T18:02:46.708Z,101281.03
2018-11-07T18:05:18.677Z,101280.14
2018-11-07T18:07:51.429Z,101291.98
2018-11-07T18:10:29.536Z,101286.75
2018-11-07T18:13:03.702Z,101293.34
2018-11-07T18:15:36.579Z,101288.51
2018-11-07T18:23:11.608Z,101295.91
2018-11-07T18:25:44.566Z,101293.27
2018-11-07T18:28:15.380Z,101292.40
2018-11-07T18:30:47.832Z,101291.53
2018-11-07T18:33:20.537Z,101296.77
2018-11-07T18:35:54.303Z,101300.73
2018-11-07T18:38:24.484Z,101298.08
2018-11-07T18:40:55.553Z,101295.91
2018-11-07T18:43:27.177Z,101308.18
2018-11-07T18:45:57.260Z,101316.98
2018-11-07T18:48:26.713Z,101318.32
2018-11-07T18:50:59.548Z,101322.67
2018-11-07T18:53:29.116Z,101320.03
2018-11-07T18:55:59.352Z,101327.94
2018-11-07T19:01:16.582Z,101333.65
2018-11-07T19:03:47.703Z,101338.86
2018-11-07T19:06:18.652Z,101334.45
2018-11-07T19:08:52.141Z,101338.41
2018-11-07T19:11:25.262Z,101341.92
2018-11-07T19:14:00.922Z,101341.10
2018-11-07T19:16:38.913Z,101350.74
2018-11-07T19:19:13.877Z,101353.81
2018-11-07T19:21:45.640Z,101346.77
2018-11-07T19:24:27.260Z,101349.42
2018-11-07T19:26:57.709Z,101349.86
2018-11-07T19:29:27.570Z,101348.13
2018-11-07T19:31:57.636Z,101348.99
2018-11-07T19:34:27.928Z,101354.28
2018-11-07T19:36:57.788Z,101351.63
2018-11-07T19:39:28.079Z,101346.38
2018-11-07T19:42:06.814Z,101352.97
2018-11-07T19:44:36.883Z,101348.55
2018-11-07T19:47:07.115Z,101348.14
2018-11-07T19:49:38.127Z,101346.80
2018-11-07T19:52:07.881Z,101345.06
2018-11-07T19:54:39.906Z,101352.48
2018-11-07T19:57:09.917Z,101355.98
2018-11-07T19:59:41.445Z,101356.03
2018-11-07T20:02:17.691Z,101355.63
2018-11-07T20:04:53.118Z,101358.69
2018-11-07T20:07:24.422Z,101349.89
2018-11-07T20:09:56.855Z,101359.11
2018-11-07T20:12:26.664Z,101356.05
2018-11-07T20:14:55.946Z,101363.03
2018-11-07T20:17:28.626Z,101363.02
2018-11-07T20:19:58.795Z,101355.13
2018-11-07T20:22:29.830Z,101360.83
2018-11-07T20:25:01.935Z,101359.50
2018-11-07T20:27:31.752Z,101342.30
2018-11-07T20:35:46.931Z,101363.91
2018-11-07T20:38:16.858Z,101367.42
2018-11-07T20:40:46.271Z,101358.24
2018-11-07T20:43:44.059Z,101367.95
2018-11-07T20:46:17.182Z,101371.02
2018-11-07T20:48:51.804Z,101374.95
2018-11-07T20:51:21.783Z,100944.30
2018-11-07T20:56:53.283Z,101378.88
2018-11-07T20:59:23.139Z,101380.66
2018-11-07T21:01:53.058Z,101385.08
2018-11-07T21:04:22.327Z,101392.50
2018-11-07T21:06:53.628Z,101388.98
2018-11-07T21:09:34.022Z,101384.16
2018-11-07T21:12:03.877Z,101388.57
2018-11-07T21:14:33.943Z,101390.33
2018-11-07T21:17:04.435Z,101400.39
2018-11-07T21:19:33.744Z,101403.91
2018-11-07T21:22:03.065Z,101397.72
2018-11-07T21:24:32.816Z,101394.18
2018-11-07T21:27:03.714Z,101396.39
2018-11-07T21:29:32.911Z,101401.67
2018-11-07T21:32:02.902Z,101400.34
2018-11-07T21:34:32.244Z,101406.03
2018-11-07T21:37:01.895Z,101401.20
2018-11-07T21:39:31.976Z,101406.87
2018-11-07T21:42:02.065Z,101399.88
2018-11-07T21:44:31.474Z,101405.19
2018-11-07T21:47:01.243Z,101403.89
2018-11-07T21:49:30.364Z,101400.34
2018-11-07T21:52:00.529Z,101402.54
2018-11-07T21:54:29.973Z,101404.30
2018-11-07T21:56:59.514Z,101406.48
2018-11-07T21:59:29.714Z,101409.98
2018-11-07T22:02:03.171Z,101410.83
2018-11-07T22:07:37.181Z,101407.83
2018-11-07T22:13:00.077Z,101418.33
2018-11-07T22:15:29.685Z,101417.92
2018-11-07T22:17:59.658Z,101423.63
2018-11-07T22:20:29.171Z,101421.02
2018-11-07T22:22:58.240Z,101428.48
2018-11-07T22:25:28.214Z,101425.36
2018-11-07T22:27:57.229Z,101429.79
2018-11-07T22:30:26.273Z,101426.27
2018-11-07T22:32:55.978Z,101425.78
2018-11-07T22:35:25.246Z,101431.93
2018-11-07T22:37:54.605Z,101434.55
2018-11-07T22:40:24.271Z,101434.09
2018-11-07T22:42:59.447Z,101431.91
2018-11-07T22:45:29.166Z,101438.94
2018-11-07T22:47:58.668Z,101445.55
2018-11-07T22:50:28.244Z,101449.03
2018-11-07T22:52:57.894Z,101448.18
2018-11-07T22:55:27.171Z,101439.83
2018-11-07T22:57:56.677Z,101447.30
2018-11-07T23:00:31.072Z,101446.36
2018-11-07T23:03:00.465Z,101453.82
2018-11-07T23:05:29.719Z,101461.32
2018-11-07T23:07:59.311Z,101458.66
2018-11-07T23:10:28.889Z,101455.59
2018-11-07T23:12:58.605Z,101466.12
2018-11-07T23:15:33.686Z,101464.83
2018-11-07T23:18:03.485Z,101463.99
2018-11-07T23:20:32.744Z,101469.25
2018-11-07T23:23:02.294Z,101468.41
2018-11-07T23:25:31.456Z,101472.83
2018-11-07T23:28:01.005Z,101474.55
2018-11-07T23:30:30.378Z,101469.70
2018-11-07T23:32:59.724Z,101481.06
2018-11-07T23:35:28.810Z,101479.27
2018-11-07T23:37:58.108Z,101476.25
2018-11-07T23:40:27.512Z,101474.09
2018-11-07T23:42:56.703Z,101477.19
2018-11-07T23:45:26.123Z,101483.28
2018-11-07T23:47:57.384Z,101479.77
2018-11-07T23:50:26.667Z,101484.20
2018-11-07T23:52:56.044Z,101493.81
2018-11-07T23:55:25.629Z,101496.93
2018-11-07T23:57:55.050Z,101498.22
